createdAt,value
2023-01-19T00:04:12.453Z,97378.16
2023-01-19T00:09:16.746Z,97384.61
2023-01-19T00:14:21.084Z,97381.05
2023-01-19T00:19:22.942Z,97379.80
2023-01-19T00:24:25.537Z,97380.61
2023-01-19T00:29:30.930Z,97377.04
2023-01-19T00:34:39.618Z,97377.49
2023-01-19T00:39:41.404Z,97379.59
2023-01-19T00:44:42.997Z,97377.98
2023-01-19T00:49:44.680Z,97382.06
2023-01-19T00:54:46.423Z,97382.41
2023-01-19T00:59:48.154Z,97380.95
2023-01-19T01:04:54.878Z,97376.55
2023-01-19T01:09:56.764Z,97371.19
2023-01-19T01:14:58.526Z,97360.58
2023-01-19T01:20:00.434Z,97354.17
2023-01-19T01:25:02.125Z,97348.15
2023-01-19T01:30:04.434Z,97351.84
2023-01-19T01:35:09.074Z,97366.94
2023-01-19T01:40:14.234Z,97368.01
2023-01-19T01:45:32.950Z,97379.20
2023-01-19T01:51:01.469Z,97386.35
2023-01-19T01:56:07.531Z,97392.15
2023-01-19T02:01:29.224Z,97390.55
2023-01-19T02:06:31.164Z,97390.55
2023-01-19T02:11:54.211Z,97385.23
2023-01-19T02:16:56.181Z,97391.56
2023-01-19T02:22:07.898Z,97400.88
2023-01-19T02:27:11.762Z,97404.56
2023-01-19T02:32:13.524Z,97407.82
2023-01-19T02:37:17.184Z,97404.52
2023-01-19T02:42:25.573Z,97401.76
2023-01-19T02:47:27.249Z,97411.03
2023-01-19T02:52:29.203Z,97418.79
2023-01-19T02:57:43.651Z,97417.32
2023-01-19T03:03:09.189Z,97423.52
2023-01-19T03:08:22.763Z,97419.09
2023-01-19T03:13:49.501Z,97422.04
2023-01-19T03:18:55.688Z,97429.63
2023-01-19T03:24:03.186Z,97426.45
2023-01-19T03:29:07.241Z,97427.13
2023-01-19T03:34:13.838Z,97427.13
2023-01-19T03:39:21.539Z,97441.38
2023-01-19T03:44:26.808Z,97449.52
2023-01-19T03:49:31.449Z,97450.89
2023-01-19T03:54:33.235Z,97445.54
2023-01-19T03:59:35.146Z,97447.11
2023-01-19T04:04:36.979Z,97459.71
2023-01-19T04:09:38.822Z,97469.11
2023-01-19T04:14:40.508Z,97463.77
2023-01-19T04:19:43.267Z,97462.16
2023-01-19T04:24:44.928Z,97463.87
2023-01-19T04:29:46.703Z,97469.38
2023-01-19T04:34:48.405Z,97475.52
2023-01-19T04:39:50.090Z,97477.81
2023-01-19T04:44:52.539Z,97493.69
2023-01-19T04:49:54.194Z,97505.11
2023-01-19T04:54:56.287Z,97501.33
2023-01-19T04:59:58.674Z,97504.50
2023-01-19T05:05:00.713Z,97508.05
2023-01-19T05:10:02.446Z,97512.70
2023-01-19T05:15:04.663Z,97506.30
2023-01-19T05:20:07.093Z,97510.30
2023-01-19T05:25:09.474Z,97514.46
2023-01-19T05:30:12.992Z,97504.67
2023-01-19T05:35:16.684Z,97499.97
2023-01-19T05:40:19.904Z,97490.09
2023-01-19T05:45:21.567Z,97485.69
2023-01-19T05:50:23.305Z,97488.28
2023-01-19T05:55:24.960Z,97488.31
2023-01-19T06:00:27.434Z,97495.06
2023-01-19T06:05:29.731Z,97496.09
2023-01-19T06:10:31.485Z,97501.43
2023-01-19T06:15:33.439Z,97499.63
2023-01-19T06:20:35.756Z,97500.08
2023-01-19T06:25:37.440Z,97509.00
2023-01-19T06:30:39.301Z,97527.78
2023-01-19T06:35:42.966Z,97560.45
2023-01-19T06:40:45.774Z,97571.99
2023-01-19T06:45:47.686Z,97576.02
2023-01-19T06:50:49.848Z,97577.52
2023-01-19T06:55:51.569Z,97579.27
2023-01-19T07:00:54.011Z,97582.90
2023-01-19T07:05:56.935Z,97603.43
2023-01-19T07:11:25.651Z,97616.27
2023-01-19T07:16:21.881Z,97621.45
2023-01-19T07:21:23.773Z,97628.77
2023-01-19T07:26:25.950Z,97641.02
2023-01-19T07:31:27.696Z,97654.04
2023-01-19T07:36:29.561Z,97663.16
2023-01-19T07:41:31.293Z,97656.25
2023-01-19T07:46:33.032Z,97657.77
2023-01-19T07:51:35.236Z,97651.84
2023-01-19T07:56:36.929Z,97639.08
2023-01-19T08:01:39.217Z,97650.44
2023-01-19T08:06:44.754Z,97656.48
2023-01-19T08:11:46.547Z,97661.98
2023-01-19T08:16:48.867Z,97665.79
2023-01-19T08:21:50.539Z,97672.63
2023-01-19T08:27:03.584Z,97671.67
2023-01-19T08:32:06.768Z,97666.94
2023-01-19T08:37:08.631Z,97657.95
2023-01-19T08:42:10.340Z,97668.55
2023-01-19T08:47:12.132Z,97675.84
2023-01-19T08:52:13.860Z,97686.73
2023-01-19T08:57:16.267Z,97696.00
2023-01-19T09:02:18.203Z,97705.77
2023-01-19T09:07:20.105Z,97714.36
2023-01-19T09:12:21.943Z,97714.17
2023-01-19T09:17:23.724Z,97727.54
2023-01-19T09:22:25.453Z,97722.34
2023-01-19T09:27:27.198Z,97738.13
2023-01-19T09:32:28.968Z,97726.09
2023-01-19T09:37:30.683Z,97724.32
2023-01-19T09:42:35.187Z,97719.19
2023-01-19T09:47:38.864Z,97719.66
2023-01-19T09:52:43.097Z,97699.74
2023-01-19T09:57:45.229Z,97700.73
2023-01-19T10:02:52.968Z,97688.95
2023-01-19T10:07:54.933Z,97703.64
2023-01-19T10:12:59.871Z,97704.98
2023-01-19T10:20:23.973Z,97699.47
2023-01-19T10:25:27.436Z,97687.02
2023-01-19T10:30:30.242Z,97686.73
2023-01-19T10:35:32.134Z,97683.59
2023-01-19T10:40:57.138Z,97676.70
2023-01-19T10:45:58.947Z,97674.65
2023-01-19T10:51:04.959Z,97674.98
2023-01-19T10:56:32.146Z,97673.42
2023-01-19T11:01:37.187Z,97671.11
2023-01-19T11:06:39.227Z,97667.73
2023-01-19T11:11:59.033Z,97663.98
2023-01-19T11:17:00.781Z,97655.13
2023-01-19T11:22:30.245Z,97651.24
2023-01-19T11:27:35.976Z,97652.99
2023-01-19T11:32:37.877Z,97650.38
2023-01-19T11:37:42.852Z,97650.36
2023-01-19T11:42:44.927Z,97654.23
2023-01-19T11:47:52.542Z,97654.59
2023-01-19T11:53:18.711Z,97647.58
2023-01-19T11:58:20.825Z,97648.27
2023-01-19T12:03:31.366Z,97653.98
2023-01-19T12:08:42.360Z,97653.31
2023-01-19T12:13:46.119Z,97662.59
2023-01-19T12:18:55.735Z,97662.57
2023-01-19T12:24:27.227Z,97662.29
2023-01-19T12:29:33.192Z,97663.60
2023-01-19T12:34:48.193Z,97658.37
2023-01-19T12:39:49.893Z,97659.39
2023-01-19T12:45:25.599Z,97660.59
2023-01-19T12:50:32.256Z,97659.35
2023-01-19T12:55:38.995Z,97660.24
2023-01-19T13:00:44.809Z,97661.13
2023-01-19T13:05:49.030Z,97665.85
2023-01-19T13:11:05.485Z,97673.61
2023-01-19T13:16:19.702Z,97677.55
2023-01-19T13:21:45.629Z,97686.52
2023-01-19T13:26:50.472Z,97685.65
2023-01-19T13:32:02.375Z,97695.02
2023-01-19T13:37:06.185Z,97702.33
2023-01-19T13:42:15.982Z,97708.63
2023-01-19T13:47:33.419Z,97709.45
2023-01-19T13:52:35.160Z,97709.30
2023-01-19T13:57:45.481Z,97716.27
2023-01-19T14:02:53.694Z,97723.69
2023-01-19T14:08:08.933Z,97731.78
2023-01-19T14:13:22.782Z,97737.24
2023-01-19T14:18:30.548Z,97739.89
2023-01-19T14:23:50.949Z,97738.20
2023-01-19T14:28:53.304Z,97739.49
2023-01-19T14:33:55.877Z,97740.99
2023-01-19T14:39:00.198Z,97736.44
2023-01-19T14:44:03.141Z,97740.15
2023-01-19T14:49:06.562Z,97737.13
2023-01-19T14:54:17.447Z,97747.02
2023-01-19T14:59:19.338Z,97755.96
2023-01-19T15:04:21.317Z,97757.39
2023-01-19T15:09:23.613Z,97754.82
2023-01-19T15:14:27.895Z,97757.23
2023-01-19T15:19:29.626Z,97756.20
2023-01-19T15:24:31.198Z,97761.94
2023-01-19T15:29:36.515Z,97757.60
2023-01-19T15:34:38.222Z,97757.48
2023-01-19T15:39:39.962Z,97763.71
2023-01-19T15:44:41.690Z,97764.23
2023-01-19T15:49:45.423Z,97765.18
2023-01-19T15:54:47.123Z,97768.16
2023-01-19T15:59:48.933Z,97765.91
2023-01-19T16:04:50.657Z,97769.73
2023-01-19T16:09:52.379Z,97773.84
2023-01-19T16:14:54.087Z,97773.48
2023-01-19T16:19:55.917Z,97784.56
2023-01-19T16:24:58.039Z,97788.01
2023-01-19T16:30:05.164Z,97791.39
2023-01-19T16:35:06.990Z,97792.45
2023-01-19T16:40:11.756Z,97794.83
2023-01-19T16:45:15.800Z,97796.34
2023-01-19T16:50:21.033Z,97808.41
2023-01-19T16:55:22.745Z,97807.77
2023-01-19T17:00:24.647Z,97810.38
2023-01-19T17:05:27.553Z,97810.38
2023-01-19T17:10:29.277Z,97814.83
2023-01-19T17:15:31.497Z,97819.90
2023-01-19T17:20:34.055Z,97814.77
2023-01-19T17:25:42.703Z,97815.88
2023-01-19T17:30:44.622Z,97817.41
2023-01-19T17:35:46.944Z,97816.41
2023-01-19T17:40:48.746Z,97821.59
2023-01-19T17:45:50.370Z,97826.46
2023-01-19T17:50:54.251Z,97831.15
2023-01-19T17:55:55.901Z,97832.63
2023-01-19T18:00:58.333Z,97835.48
2023-01-19T18:06:00.229Z,97837.70
2023-01-19T18:11:03.008Z,97840.30
2023-01-19T18:16:08.108Z,97842.53
2023-01-19T18:21:12.634Z,97846.82
2023-01-19T18:26:21.071Z,97843.85
2023-01-19T18:31:27.080Z,97850.83
2023-01-19T18:36:29.038Z,97859.23
2023-01-19T18:41:35.654Z,97859.30
2023-01-19T18:46:38.392Z,97860.25
2023-01-19T18:51:41.706Z,97865.00
2023-01-19T18:56:43.428Z,97870.41
2023-01-19T19:01:45.403Z,97881.54
2023-01-19T19:06:47.335Z,97888.69
2023-01-19T19:11:49.077Z,97898.40
2023-01-19T19:16:50.796Z,97904.52
2023-01-19T19:21:53.907Z,97914.92
2023-01-19T19:26:55.687Z,97915.66
2023-01-19T19:31:57.389Z,97925.94
2023-01-19T19:37:01.115Z,97933.52
2023-01-19T19:42:03.042Z,97936.50
2023-01-19T19:47:04.814Z,97930.66
2023-01-19T19:52:09.208Z,97942.17
2023-01-19T19:57:10.822Z,97944.05
2023-01-19T20:02:12.909Z,97948.61
2023-01-19T20:07:17.161Z,97953.06
2023-01-19T20:12:19.830Z,97964.77
2023-01-19T20:17:21.603Z,97972.86
2023-01-19T20:22:23.476Z,97970.12
2023-01-19T20:27:25.444Z,97973.75
2023-01-19T20:32:27.407Z,97980.52
2023-01-19T20:37:29.471Z,97985.89
2023-01-19T20:42:31.444Z,97986.89
2023-01-19T20:47:33.224Z,97997.16
2023-01-19T20:52:36.058Z,97999.48
2023-01-19T20:57:37.759Z,98006.52
2023-01-19T21:02:39.637Z,98014.25
2023-01-19T21:07:41.404Z,98018.23
2023-01-19T21:12:44.141Z,98014.89
2023-01-19T21:17:45.973Z,98019.37
2023-01-19T21:22:47.945Z,98023.86
2023-01-19T21:27:50.848Z,98025.61
2023-01-19T21:32:52.789Z,98031.02
2023-01-19T21:37:54.769Z,98028.48
2023-01-19T21:42:56.690Z,98037.83
2023-01-19T21:47:58.391Z,98044.73
2023-01-19T21:53:00.235Z,98047.34
2023-01-19T21:58:02.057Z,98055.42
2023-01-19T22:03:04.836Z,98056.02
2023-01-19T22:08:06.925Z,98058.02
2023-01-19T22:13:09.462Z,98059.65
2023-01-19T22:18:11.649Z,98067.36
2023-01-19T22:23:23.903Z,98068.89
2023-01-19T22:28:25.685Z,98068.27
2023-01-19T22:33:28.124Z,98075.39
2023-01-19T22:38:30.085Z,98080.98
2023-01-19T22:43:31.770Z,98084.85
2023-01-19T22:48:41.694Z,98084.18
2023-01-19T22:53:43.664Z,98086.92
2023-01-19T22:58:46.810Z,98086.81
2023-01-19T23:03:49.333Z,98082.52
2023-01-19T23:08:51.731Z,98086.98
2023-01-19T23:13:58.009Z,98085.85
2023-01-19T23:19:01.333Z,98085.24
2023-01-19T23:24:05.181Z,98091.63
2023-01-19T23:29:11.066Z,98099.90
2023-01-19T23:34:13.412Z,98106.40
2023-01-19T23:39:18.464Z,98113.24
2023-01-19T23:44:20.318Z,98119.34
2023-01-19T23:49:22.036Z,98125.92
2023-01-19T23:54:23.801Z,98130.08
2023-01-19T23:59:25.876Z,98133.59
